sensor_id;sensor_type;location;lat;lon;timestamp;temperature;humidity
64843;DHT22;51310;52.198;5.422;2022-08-19T00:01:55;19.80;99.90
64843;DHT22;51310;52.198;5.422;2022-08-19T00:04:26;18.10;99.90
64843;DHT22;51310;52.198;5.422;2022-08-19T00:06:58;18.20;99.90
64843;DHT22;51310;52.198;5.422;2022-08-19T00:09:25;19.50;99.90
64843;DHT22;51310;52.198;5.422;2022-08-19T00:11:52;18.10;99.90
64843;DHT22;51310;52.198;5.422;2022-08-19T00:14:21;18.10;99.90
64843;DHT22;51310;52.198;5.422;2022-08-19T00:16:49;18.00;99.90
64843;DHT22;51310;52.198;5.422;2022-08-19T00:19:19;18.00;99.90
64843;DHT22;51310;52.198;5.422;2022-08-19T00:21:46;17.90;99.90
64843;DHT22;51310;52.198;5.422;2022-08-19T00:24:14;18.80;99.90
64843;DHT22;51310;52.198;5.422;2022-08-19T00:26:42;17.80;99.90
64843;DHT22;51310;52.198;5.422;2022-08-19T00:29:10;17.80;99.90
64843;DHT22;51310;52.198;5.422;2022-08-19T00:31:39;17.80;99.90
64843;DHT22;51310;52.198;5.422;2022-08-19T00:34:07;17.80;99.90
64843;DHT22;51310;52.198;5.422;2022-08-19T00:36:33;17.80;99.90
64843;DHT22;51310;52.198;5.422;2022-08-19T00:38:59;17.70;99.90
64843;DHT22;51310;52.198;5.422;2022-08-19T00:41:26;17.70;99.90
64843;DHT22;51310;52.198;5.422;2022-08-19T00:46:46;17.70;99.90
64843;DHT22;51310;52.198;5.422;2022-08-19T00:49:18;17.60;99.90
64843;DHT22;51310;52.198;5.422;2022-08-19T00:51:52;17.60;99.90
64843;DHT22;51310;52.198;5.422;2022-08-19T00:54:26;17.60;99.90
64843;DHT22;51310;52.198;5.422;2022-08-19T00:56:53;17.60;99.90
64843;DHT22;51310;52.198;5.422;2022-08-19T00:59:20;17.60;99.90
64843;DHT22;51310;52.198;5.422;2022-08-19T01:01:47;17.70;99.90
64843;DHT22;51310;52.198;5.422;2022-08-19T01:04:13;17.60;99.90
64843;DHT22;51310;52.198;5.422;2022-08-19T01:06:40;17.60;99.90
64843;DHT22;51310;52.198;5.422;2022-08-19T01:09:07;17.50;99.90
64843;DHT22;51310;52.198;5.422;2022-08-19T01:11:36;17.70;99.90
64843;DHT22;51310;52.198;5.422;2022-08-19T01:14:07;17.50;99.90
64843;DHT22;51310;52.198;5.422;2022-08-19T01:16:35;17.50;99.90
64843;DHT22;51310;52.198;5.422;2022-08-19T01:19:09;17.50;99.90
64843;DHT22;51310;52.198;5.422;2022-08-19T01:22:08;17.50;99.90
64843;DHT22;51310;52.198;5.422;2022-08-19T01:27:08;17.40;99.90
64843;DHT22;51310;52.198;5.422;2022-08-19T01:29:38;17.40;99.90
64843;DHT22;51310;52.198;5.422;2022-08-19T01:32:09;17.70;99.90
64843;DHT22;51310;52.198;5.422;2022-08-19T01:34:40;17.40;99.90
64843;DHT22;51310;52.198;5.422;2022-08-19T01:37:08;17.40;99.90
64843;DHT22;51310;52.198;5.422;2022-08-19T01:39:38;17.40;99.90
64843;DHT22;51310;52.198;5.422;2022-08-19T01:42:07;17.30;99.90
64843;DHT22;51310;52.198;5.422;2022-08-19T01:44:36;17.30;99.90
64843;DHT22;51310;52.198;5.422;2022-08-19T01:47:04;17.20;99.90
64843;DHT22;51310;52.198;5.422;2022-08-19T01:49:30;17.10;99.90
64843;DHT22;51310;52.198;5.422;2022-08-19T01:51:56;17.30;99.90
64843;DHT22;51310;52.198;5.422;2022-08-19T01:54:24;17.10;99.90
64843;DHT22;51310;52.198;5.422;2022-08-19T01:56:58;17.10;99.90
64843;DHT22;51310;52.198;5.422;2022-08-19T01:59:31;17.10;99.90
64843;DHT22;51310;52.198;5.422;2022-08-19T02:01:58;17.10;99.90
64843;DHT22;51310;52.198;5.422;2022-08-19T02:04:24;17.20;99.90
64843;DHT22;51310;52.198;5.422;2022-08-19T02:06:50;17.10;99.90
64843;DHT22;51310;52.198;5.422;2022-08-19T02:09:17;17.10;99.90
64843;DHT22;51310;52.198;5.422;2022-08-19T02:11:42;17.00;99.90
64843;DHT22;51310;52.198;5.422;2022-08-19T02:14:09;17.00;99.90
64843;DHT22;51310;52.198;5.422;2022-08-19T02:16:36;17.10;99.90
64843;DHT22;51310;52.198;5.422;2022-08-19T02:19:04;17.00;99.90
64843;DHT22;51310;52.198;5.422;2022-08-19T02:21:30;17.50;99.90
64843;DHT22;51310;52.198;5.422;2022-08-19T02:23:56;19.10;99.90
64843;DHT22;51310;52.198;5.422;2022-08-19T02:26:23;17.00;99.90
64843;DHT22;51310;52.198;5.422;2022-08-19T02:28:52;17.00;99.90
64843;DHT22;51310;52.198;5.422;2022-08-19T02:31:22;16.90;99.90
64843;DHT22;51310;52.198;5.422;2022-08-19T02:33:50;16.90;99.90
64843;DHT22;51310;52.198;5.422;2022-08-19T02:36:17;17.90;99.90
64843;DHT22;51310;52.198;5.422;2022-08-19T02:38:44;16.90;99.90
64843;DHT22;51310;52.198;5.422;2022-08-19T02:41:21;16.90;99.90
64843;DHT22;51310;52.198;5.422;2022-08-19T02:43:50;18.90;99.90
64843;DHT22;51310;52.198;5.422;2022-08-19T02:46:23;16.90;99.90
64843;DHT22;51310;52.198;5.422;2022-08-19T02:48:54;16.90;99.90
64843;DHT22;51310;52.198;5.422;2022-08-19T02:51:43;17.00;99.90
64843;DHT22;51310;52.198;5.422;2022-08-19T02:54:12;16.70;99.90
64843;DHT22;51310;52.198;5.422;2022-08-19T02:56:40;16.90;99.90
64843;DHT22;51310;52.198;5.422;2022-08-19T02:59:08;17.00;99.90
64843;DHT22;51310;52.198;5.422;2022-08-19T03:01:35;17.00;99.90
64843;DHT22;51310;52.198;5.422;2022-08-19T03:04:04;16.90;99.90
64843;DHT22;51310;52.198;5.422;2022-08-19T03:06:31;16.90;99.90
64843;DHT22;51310;52.198;5.422;2022-08-19T03:09:00;16.80;99.90
64843;DHT22;51310;52.198;5.422;2022-08-19T03:11:29;16.70;99.90
64843;DHT22;51310;52.198;5.422;2022-08-19T03:13:58;18.70;99.90
64843;DHT22;51310;52.198;5.422;2022-08-19T03:16:27;16.60;99.90
64843;DHT22;51310;52.198;5.422;2022-08-19T03:18:56;16.50;99.90
64843;DHT22;51310;52.198;5.422;2022-08-19T03:21:28;16.50;99.90
64843;DHT22;51310;52.198;5.422;2022-08-19T03:24:03;16.50;99.90
64843;DHT22;51310;52.198;5.422;2022-08-19T03:26:33;16.50;99.90
64843;DHT22;51310;52.198;5.422;2022-08-19T03:29:04;16.50;99.90
64843;DHT22;51310;52.198;5.422;2022-08-19T03:31:30;16.50;99.90
64843;DHT22;51310;52.198;5.422;2022-08-19T03:33:57;16.50;99.90
64843;DHT22;51310;52.198;5.422;2022-08-19T03:36:25;16.50;99.90
64843;DHT22;51310;52.198;5.422;2022-08-19T03:38:55;16.50;99.90
64843;DHT22;51310;52.198;5.422;2022-08-19T03:41:26;16.60;99.90
64843;DHT22;51310;52.198;5.422;2022-08-19T03:43:58;16.50;99.90
64843;DHT22;51310;52.198;5.422;2022-08-19T03:46:27;16.50;99.90
64843;DHT22;51310;52.198;5.422;2022-08-19T03:48:57;16.50;99.90
64843;DHT22;51310;52.198;5.422;2022-08-19T03:51:34;16.40;99.90
64843;DHT22;51310;52.198;5.422;2022-08-19T03:54:07;16.40;99.90
64843;DHT22;51310;52.198;5.422;2022-08-19T03:56:38;16.40;99.90
64843;DHT22;51310;52.198;5.422;2022-08-19T03:59:16;16.40;99.90
64843;DHT22;51310;52.198;5.422;2022-08-19T04:01:57;16.40;99.90
64843;DHT22;51310;52.198;5.422;2022-08-19T04:04:27;16.30;99.90
64843;DHT22;51310;52.198;5.422;2022-08-19T04:06:54;16.40;99.90
64843;DHT22;51310;52.198;5.422;2022-08-19T04:09:20;16.30;99.90
64843;DHT22;51310;52.198;5.422;2022-08-19T04:11:49;16.30;99.90
64843;DHT22;51310;52.198;5.422;2022-08-19T04:14:26;16.20;99.90
64843;DHT22;51310;52.198;5.422;2022-08-19T04:16:56;16.30;99.90
64843;DHT22;51310;52.198;5.422;2022-08-19T04:19:24;16.30;99.90
64843;DHT22;51310;52.198;5.422;2022-08-19T04:21:52;16.40;99.90
64843;DHT22;51310;52.198;5.422;2022-08-19T04:24:21;16.40;99.90
64843;DHT22;51310;52.198;5.422;2022-08-19T04:26:47;16.40;99.90
64843;DHT22;51310;52.198;5.422;2022-08-19T04:29:16;16.50;99.90
64843;DHT22;51310;52.198;5.422;2022-08-19T04:34:16;16.40;99.90
64843;DHT22;51310;52.198;5.422;2022-08-19T04:36:48;16.40;99.90
64843;DHT22;51310;52.198;5.422;2022-08-19T04:39:18;17.80;99.90
64843;DHT22;51310;52.198;5.422;2022-08-19T04:41:48;16.30;99.90
64843;DHT22;51310;52.198;5.422;2022-08-19T04:44:34;18.40;99.90
64843;DHT22;51310;52.198;5.422;2022-08-19T04:47:02;16.30;99.90
64843;DHT22;51310;52.198;5.422;2022-08-19T04:49:31;16.30;99.90
64843;DHT22;51310;52.198;5.422;2022-08-19T04:51:57;16.20;99.90
64843;DHT22;51310;52.198;5.422;2022-08-19T04:54:24;16.30;99.90
64843;DHT22;51310;52.198;5.422;2022-08-19T04:56:52;16.20;99.90
64843;DHT22;51310;52.198;5.422;2022-08-19T04:59:19;16.20;99.90
64843;DHT22;51310;52.198;5.422;2022-08-19T05:01:46;16.20;99.90
64843;DHT22;51310;52.198;5.422;2022-08-19T05:04:19;16.20;99.90
64843;DHT22;51310;52.198;5.422;2022-08-19T05:06:49;16.20;99.90
64843;DHT22;51310;52.198;5.422;2022-08-19T05:09:16;16.20;99.90
64843;DHT22;51310;52.198;5.422;2022-08-19T05:11:43;16.20;99.90
64843;DHT22;51310;52.198;5.422;2022-08-19T05:14:10;16.20;99.90
64843;DHT22;51310;52.198;5.422;2022-08-19T05:16:38;16.30;99.90
64843;DHT22;51310;52.198;5.422;2022-08-19T05:19:05;16.40;99.90
64843;DHT22;51310;52.198;5.422;2022-08-19T05:21:49;18.10;99.90
64843;DHT22;51310;52.198;5.422;2022-08-19T05:24:34;16.50;99.90
64843;DHT22;51310;52.198;5.422;2022-08-19T05:27:03;16.60;99.90
64843;DHT22;51310;52.198;5.422;2022-08-19T05:29:32;18.10;99.90
64843;DHT22;51310;52.198;5.422;2022-08-19T05:32:01;17.00;99.90
64843;DHT22;51310;52.198;5.422;2022-08-19T05:34:34;17.10;99.90
64843;DHT22;51310;52.198;5.422;2022-08-19T05:37:01;20.40;99.90
64843;DHT22;51310;52.198;5.422;2022-08-19T05:39:31;17.60;99.90
64843;DHT22;51310;52.198;5.422;2022-08-19T05:42:05;17.70;99.90
64843;DHT22;51310;52.198;5.422;2022-08-19T05:44:37;18.10;99.90
64843;DHT22;51310;52.198;5.422;2022-08-19T05:47:08;18.10;99.90
64843;DHT22;51310;52.198;5.422;2022-08-19T05:49:36;18.60;99.90
64843;DHT22;51310;52.198;5.422;2022-08-19T05:52:09;18.60;99.90
64843;DHT22;51310;52.198;5.422;2022-08-19T05:54:40;18.60;99.90
64843;DHT22;51310;52.198;5.422;2022-08-19T05:57:07;18.70;99.90
64843;DHT22;51310;52.198;5.422;2022-08-19T05:59:34;18.90;99.90
64843;DHT22;51310;52.198;5.422;2022-08-19T06:02:01;19.10;99.90
64843;DHT22;51310;52.198;5.422;2022-08-19T06:04:28;19.10;99.90
64843;DHT22;51310;52.198;5.422;2022-08-19T06:06:54;19.10;99.90
64843;DHT22;51310;52.198;5.422;2022-08-19T06:09:22;19.10;99.90
64843;DHT22;51310;52.198;5.422;2022-08-19T06:11:52;19.10;99.90
64843;DHT22;51310;52.198;5.422;2022-08-19T06:14:24;19.00;99.90
64843;DHT22;51310;52.198;5.422;2022-08-19T06:16:52;19.50;99.90
64843;DHT22;51310;52.198;5.422;2022-08-19T06:19:20;19.00;99.90
64843;DHT22;51310;52.198;5.422;2022-08-19T06:21:50;19.00;99.90
64843;DHT22;51310;52.198;5.422;2022-08-19T06:24:21;19.10;99.90
64843;DHT22;51310;52.198;5.422;2022-08-19T06:26:50;20.40;99.90
64843;DHT22;51310;52.198;5.422;2022-08-19T06:29:20;19.20;99.90
64843;DHT22;51310;52.198;5.422;2022-08-19T06:31:50;19.50;99.90
64843;DHT22;51310;52.198;5.422;2022-08-19T06:34:19;19.30;99.90
64843;DHT22;51310;52.198;5.422;2022-08-19T06:36:48;19.60;99.90
64843;DHT22;51310;52.198;5.422;2022-08-19T06:39:20;19.60;99.90
64843;DHT22;51310;52.198;5.422;2022-08-19T06:41:52;19.60;99.90
64843;DHT22;51310;52.198;5.422;2022-08-19T06:44:27;19.60;99.90
64843;DHT22;51310;52.198;5.422;2022-08-19T06:47:06;19.60;99.90
64843;DHT22;51310;52.198;5.422;2022-08-19T06:49:34;19.60;99.90
64843;DHT22;51310;52.198;5.422;2022-08-19T06:52:02;19.60;99.90
64843;DHT22;51310;52.198;5.422;2022-08-19T06:54:30;19.60;99.90
64843;DHT22;51310;52.198;5.422;2022-08-19T06:56:57;19.50;99.90
64843;DHT22;51310;52.198;5.422;2022-08-19T06:59:27;19.50;99.90
64843;DHT22;51310;52.198;5.422;2022-08-19T07:01:59;19.60;99.90
64843;DHT22;51310;52.198;5.422;2022-08-19T07:04:31;19.50;99.90
64843;DHT22;51310;52.198;5.422;2022-08-19T07:07:03;19.30;99.90
64843;DHT22;51310;52.198;5.422;2022-08-19T07:09:37;19.40;99.90
64843;DHT22;51310;52.198;5.422;2022-08-19T07:12:08;19.60;99.90
64843;DHT22;51310;52.198;5.422;2022-08-19T07:14:37;19.60;99.90
64843;DHT22;51310;52.198;5.422;2022-08-19T07:17:06;19.80;99.90
64843;DHT22;51310;52.198;5.422;2022-08-19T07:19:36;19.80;99.90
64843;DHT22;51310;52.198;5.422;2022-08-19T07:22:05;19.90;99.90
64843;DHT22;51310;52.198;5.422;2022-08-19T07:24:33;20.00;99.90
64843;DHT22;51310;52.198;5.422;2022-08-19T07:27:02;19.90;99.90
64843;DHT22;51310;52.198;5.422;2022-08-19T07:29:32;19.80;99.90
64843;DHT22;51310;52.198;5.422;2022-08-19T07:32:01;19.80;99.90
64843;DHT22;51310;52.198;5.422;2022-08-19T07:34:30;19.90;99.90
64843;DHT22;51310;52.198;5.422;2022-08-19T07:37:05;20.90;99.90
64843;DHT22;51310;52.198;5.422;2022-08-19T07:39:34;19.80;99.90
64843;DHT22;51310;52.198;5.422;2022-08-19T07:42:06;19.70;99.90
64843;DHT22;51310;52.198;5.422;2022-08-19T07:44:35;20.10;99.90
64843;DHT22;51310;52.198;5.422;2022-08-19T07:47:03;20.00;99.90
64843;DHT22;51310;52.198;5.422;2022-08-19T07:49:31;20.10;99.90
64843;DHT22;51310;52.198;5.422;2022-08-19T07:51:59;20.10;99.90
64843;DHT22;51310;52.198;5.422;2022-08-19T07:54:32;20.20;99.90
64843;DHT22;51310;52.198;5.422;2022-08-19T07:57:01;21.00;99.90
64843;DHT22;51310;52.198;5.422;2022-08-19T07:59:28;20.50;99.90
64843;DHT22;51310;52.198;5.422;2022-08-19T08:01:56;22.30;99.90
64843;DHT22;51310;52.198;5.422;2022-08-19T08:04:24;20.40;99.90
64843;DHT22;51310;52.198;5.422;2022-08-19T08:07:09;22.40;99.90
64843;DHT22;51310;52.198;5.422;2022-08-19T08:09:54;20.40;99.90
64843;DHT22;51310;52.198;5.422;2022-08-19T08:12:29;20.50;99.90
64843;DHT22;51310;52.198;5.422;2022-08-19T08:15:05;20.40;99.90
64843;DHT22;51310;52.198;5.422;2022-08-19T08:17:35;21.00;99.90
64843;DHT22;51310;52.198;5.422;2022-08-19T08:20:04;20.20;99.90
64843;DHT22;51310;52.198;5.422;2022-08-19T08:22:32;19.90;99.90
64843;DHT22;51310;52.198;5.422;2022-08-19T08:25:19;20.50;99.90
64843;DHT22;51310;52.198;5.422;2022-08-19T08:27:48;20.30;99.90
64843;DHT22;51310;52.198;5.422;2022-08-19T08:30:24;20.30;99.90
64843;DHT22;51310;52.198;5.422;2022-08-19T08:32:52;20.30;99.90
64843;DHT22;51310;52.198;5.422;2022-08-19T08:35:22;22.50;99.90
64843;DHT22;51310;52.198;5.422;2022-08-19T08:37:51;20.20;99.90
64843;DHT22;51310;52.198;5.422;2022-08-19T08:40:30;20.40;99.90
64843;DHT22;51310;52.198;5.422;2022-08-19T08:43:27;20.40;99.90
64843;DHT22;51310;52.198;5.422;2022-08-19T08:46:09;20.70;99.90
64843;DHT22;51310;52.198;5.422;2022-08-19T08:49:11;21.20;99.90
64843;DHT22;51310;52.198;5.422;2022-08-19T08:52:02;21.40;99.90
64843;DHT22;51310;52.198;5.422;2022-08-19T08:54:44;21.40;99.90
64843;DHT22;51310;52.198;5.422;2022-08-19T08:57:19;21.80;99.90
64843;DHT22;51310;52.198;5.422;2022-08-19T08:59:54;22.00;99.40
64843;DHT22;51310;52.198;5.422;2022-08-19T09:02:23;22.00;98.70
64843;DHT22;51310;52.198;5.422;2022-08-19T09:04:49;22.00;97.40
64843;DHT22;51310;52.198;5.422;2022-08-19T09:13:14;22.00;95.80
64843;DHT22;51310;52.198;5.422;2022-08-19T09:16:14;22.30;95.50
64843;DHT22;51310;52.198;5.422;2022-08-19T09:18:51;22.60;94.50
64843;DHT22;51310;52.198;5.422;2022-08-19T09:21:22;22.70;93.70
64843;DHT22;51310;52.198;5.422;2022-08-19T09:26:20;22.70;91.50
64843;DHT22;51310;52.198;5.422;2022-08-19T09:28:51;22.50;91.60
64843;DHT22;51310;52.198;5.422;2022-08-19T09:31:24;22.20;93.50
64843;DHT22;51310;52.198;5.422;2022-08-19T09:33:54;22.30;93.40
64843;DHT22;51310;52.198;5.422;2022-08-19T09:36:24;22.60;93.50
64843;DHT22;51310;52.198;5.422;2022-08-19T09:38:54;22.90;90.20
64843;DHT22;51310;52.198;5.422;2022-08-19T09:41:22;22.80;90.90
64843;DHT22;51310;52.198;5.422;2022-08-19T09:43:52;23.00;87.90
64843;DHT22;51310;52.198;5.422;2022-08-19T09:46:22;22.90;87.90
64843;DHT22;51310;52.198;5.422;2022-08-19T09:48:52;23.10;90.40
64843;DHT22;51310;52.198;5.422;2022-08-19T09:51:23;23.00;88.60
64843;DHT22;51310;52.198;5.422;2022-08-19T09:53:54;23.00;89.50
64843;DHT22;51310;52.198;5.422;2022-08-19T09:56:26;22.90;88.50
64843;DHT22;51310;52.198;5.422;2022-08-19T09:58:53;23.10;85.90
64843;DHT22;51310;52.198;5.422;2022-08-19T10:01:22;23.00;88.60
64843;DHT22;51310;52.198;5.422;2022-08-19T10:03:52;22.90;88.80
64843;DHT22;51310;52.198;5.422;2022-08-19T10:06:23;23.20;86.90
64843;DHT22;51310;52.198;5.422;2022-08-19T10:08:52;23.20;88.00
64843;DHT22;51310;52.198;5.422;2022-08-19T10:11:19;23.20;86.40
64843;DHT22;51310;52.198;5.422;2022-08-19T10:13:46;23.30;87.20
64843;DHT22;51310;52.198;5.422;2022-08-19T10:16:15;23.60;84.60
64843;DHT22;51310;52.198;5.422;2022-08-19T10:18:48;23.90;82.70
64843;DHT22;51310;52.198;5.422;2022-08-19T10:21:27;23.70;78.90
64843;DHT22;51310;52.198;5.422;2022-08-19T10:23:59;23.70;79.30
64843;DHT22;51310;52.198;5.422;2022-08-19T10:26:37;23.50;79.80
64843;DHT22;51310;52.198;5.422;2022-08-19T10:29:07;24.20;80.80
64843;DHT22;51310;52.198;5.422;2022-08-19T10:31:33;23.40;78.80
64843;DHT22;51310;52.198;5.422;2022-08-19T10:34:00;23.40;78.50
64843;DHT22;51310;52.198;5.422;2022-08-19T10:36:32;23.40;77.90
64843;DHT22;51310;52.198;5.422;2022-08-19T10:39:04;23.40;79.10
64843;DHT22;51310;52.198;5.422;2022-08-19T10:41:36;23.40;79.90
64843;DHT22;51310;52.198;5.422;2022-08-19T10:44:07;23.60;80.10
64843;DHT22;51310;52.198;5.422;2022-08-19T10:46:41;24.00;75.50
64843;DHT22;51310;52.198;5.422;2022-08-19T10:49:11;24.20;77.20
64843;DHT22;51310;52.198;5.422;2022-08-19T10:51:38;24.60;72.80
64843;DHT22;51310;52.198;5.422;2022-08-19T10:54:24;24.70;72.50
64843;DHT22;51310;52.198;5.422;2022-08-19T10:57:10;24.70;72.20
64843;DHT22;51310;52.198;5.422;2022-08-19T10:59:36;24.80;72.40
64843;DHT22;51310;52.198;5.422;2022-08-19T11:02:06;24.80;72.90
64843;DHT22;51310;52.198;5.422;2022-08-19T11:04:36;25.00;71.70
64843;DHT22;51310;52.198;5.422;2022-08-19T11:07:04;24.40;73.50
64843;DHT22;51310;52.198;5.422;2022-08-19T11:09:31;24.30;74.30
64843;DHT22;51310;52.198;5.422;2022-08-19T11:12:05;24.40;74.60
64843;DHT22;51310;52.198;5.422;2022-08-19T11:14:34;24.50;73.10
64843;DHT22;51310;52.198;5.422;2022-08-19T11:17:01;24.50;73.60
64843;DHT22;51310;52.198;5.422;2022-08-19T11:19:29;24.50;75.10
64843;DHT22;51310;52.198;5.422;2022-08-19T11:21:56;24.50;74.70
64843;DHT22;51310;52.198;5.422;2022-08-19T11:24:24;24.80;76.20
64843;DHT22;51310;52.198;5.422;2022-08-19T11:26:54;24.70;76.30
64843;DHT22;51310;52.198;5.422;2022-08-19T11:29:27;25.00;74.60
64843;DHT22;51310;52.198;5.422;2022-08-19T11:31:54;25.10;73.50
64843;DHT22;51310;52.198;5.422;2022-08-19T11:34:23;25.10;71.30
64843;DHT22;51310;52.198;5.422;2022-08-19T11:36:53;25.00;72.60
64843;DHT22;51310;52.198;5.422;2022-08-19T11:39:25;24.70;73.50
64843;DHT22;51310;52.198;5.422;2022-08-19T11:41:54;24.70;74.40
64843;DHT22;51310;52.198;5.422;2022-08-19T11:44:20;24.90;73.20
64843;DHT22;51310;52.198;5.422;2022-08-19T11:46:46;25.30;71.80
64843;DHT22;51310;52.198;5.422;2022-08-19T11:49:13;25.30;70.40
64843;DHT22;51310;52.198;5.422;2022-08-19T11:51:42;25.10;70.10
64843;DHT22;51310;52.198;5.422;2022-08-19T11:56:37;25.10;71.70
64843;DHT22;51310;52.198;5.422;2022-08-19T11:59:03;25.20;71.40
64843;DHT22;51310;52.198;5.422;2022-08-19T12:01:30;25.40;71.70
64843;DHT22;51310;52.198;5.422;2022-08-19T12:03:57;25.70;70.90
64843;DHT22;51310;52.198;5.422;2022-08-19T12:06:29;25.60;72.10
64843;DHT22;51310;52.198;5.422;2022-08-19T12:09:03;25.70;69.80
64843;DHT22;51310;52.198;5.422;2022-08-19T12:11:33;25.10;71.10
64843;DHT22;51310;52.198;5.422;2022-08-19T12:13:59;27.00;74.10
64843;DHT22;51310;52.198;5.422;2022-08-19T12:16:27;24.60;75.20
64843;DHT22;51310;52.198;5.422;2022-08-19T12:18:56;24.60;75.10
64843;DHT22;51310;52.198;5.422;2022-08-19T12:21:25;24.60;76.50
64843;DHT22;51310;52.198;5.422;2022-08-19T12:23:56;24.30;77.50
64843;DHT22;51310;52.198;5.422;2022-08-19T12:26:25;24.20;79.50
64843;DHT22;51310;52.198;5.422;2022-08-19T12:28:54;23.90;88.50
64843;DHT22;51310;52.198;5.422;2022-08-19T12:31:21;23.60;91.10
64843;DHT22;51310;52.198;5.422;2022-08-19T12:33:47;22.90;96.20
64843;DHT22;51310;52.198;5.422;2022-08-19T12:36:14;22.20;99.90
64843;DHT22;51310;52.198;5.422;2022-08-19T12:38:42;21.80;99.90
64843;DHT22;51310;52.198;5.422;2022-08-19T12:41:12;21.20;99.90
64843;DHT22;51310;52.198;5.422;2022-08-19T12:43:40;21.10;99.90
64843;DHT22;51310;52.198;5.422;2022-08-19T12:46:08;20.90;99.90
64843;DHT22;51310;52.198;5.422;2022-08-19T12:48:36;21.00;99.90
64843;DHT22;51310;52.198;5.422;2022-08-19T12:51:09;24.80;99.90
64843;DHT22;51310;52.198;5.422;2022-08-19T12:53:40;21.00;99.90
64843;DHT22;51310;52.198;5.422;2022-08-19T12:56:08;21.10;99.90
64843;DHT22;51310;52.198;5.422;2022-08-19T12:58:36;21.10;99.90
64843;DHT22;51310;52.198;5.422;2022-08-19T13:01:11;21.00;99.90
64843;DHT22;51310;52.198;5.422;2022-08-19T13:03:40;21.00;99.90
64843;DHT22;51310;52.198;5.422;2022-08-19T13:06:07;21.10;99.90
64843;DHT22;51310;52.198;5.422;2022-08-19T13:08:34;21.40;99.90
64843;DHT22;51310;52.198;5.422;2022-08-19T13:11:15;21.50;99.90
64843;DHT22;51310;52.198;5.422;2022-08-19T13:13:45;21.60;99.90
64843;DHT22;51310;52.198;5.422;2022-08-19T13:16:14;21.70;99.90
64843;DHT22;51310;52.198;5.422;2022-08-19T13:18:45;23.80;99.90
64843;DHT22;51310;52.198;5.422;2022-08-19T13:21:13;25.60;99.90
64843;DHT22;51310;52.198;5.422;2022-08-19T13:23:40;22.40;99.90
64843;DHT22;51310;52.198;5.422;2022-08-19T13:26:07;22.50;99.90
64843;DHT22;51310;52.198;5.422;2022-08-19T13:28:35;22.50;99.90
64843;DHT22;51310;52.198;5.422;2022-08-19T13:31:21;22.70;99.90
64843;DHT22;51310;52.198;5.422;2022-08-19T13:34:09;22.80;99.90
64843;DHT22;51310;52.198;5.422;2022-08-19T13:36:36;22.90;99.90
64843;DHT22;51310;52.198;5.422;2022-08-19T13:39:05;22.90;99.90
64843;DHT22;51310;52.198;5.422;2022-08-19T13:41:33;22.90;99.90
64843;DHT22;51310;52.198;5.422;2022-08-19T13:43:59;23.80;99.90
64843;DHT22;51310;52.198;5.422;2022-08-19T13:46:27;22.90;99.90
64843;DHT22;51310;52.198;5.422;2022-08-19T13:48:54;23.10;99.90
64843;DHT22;51310;52.198;5.422;2022-08-19T13:53:48;23.30;99.90
64843;DHT22;51310;52.198;5.422;2022-08-19T13:56:17;23.40;99.90
64843;DHT22;51310;52.198;5.422;2022-08-19T13:58:46;23.30;99.90
64843;DHT22;51310;52.198;5.422;2022-08-19T14:01:18;24.90;99.90
64843;DHT22;51310;52.198;5.422;2022-08-19T14:03:46;23.10;99.90
64843;DHT22;51310;52.198;5.422;2022-08-19T14:06:12;23.10;99.90
64843;DHT22;51310;52.198;5.422;2022-08-19T14:08:38;23.00;99.90
64843;DHT22;51310;52.198;5.422;2022-08-19T14:13:34;23.00;99.90
64843;DHT22;51310;52.198;5.422;2022-08-19T14:16:00;23.00;99.90
64843;DHT22;51310;52.198;5.422;2022-08-19T14:18:27;25.30;99.90
64843;DHT22;51310;52.198;5.422;2022-08-19T14:20:53;23.00;99.90
64843;DHT22;51310;52.198;5.422;2022-08-19T14:23:19;23.20;99.90
64843;DHT22;51310;52.198;5.422;2022-08-19T14:25:45;23.10;99.90
64843;DHT22;51310;52.198;5.422;2022-08-19T14:28:11;23.50;99.90
64843;DHT22;51310;52.198;5.422;2022-08-19T14:30:38;23.70;99.90
64843;DHT22;51310;52.198;5.422;2022-08-19T14:33:07;23.70;99.90
64843;DHT22;51310;52.198;5.422;2022-08-19T14:35:34;23.70;99.90
64843;DHT22;51310;52.198;5.422;2022-08-19T14:38:03;23.70;99.90
64843;DHT22;51310;52.198;5.422;2022-08-19T14:40:31;24.00;99.90
64843;DHT22;51310;52.198;5.422;2022-08-19T14:43:01;23.70;99.90
64843;DHT22;51310;52.198;5.422;2022-08-19T14:45:35;23.70;99.90
64843;DHT22;51310;52.198;5.422;2022-08-19T14:48:07;24.00;99.90
64843;DHT22;51310;52.198;5.422;2022-08-19T14:53:06;24.00;99.90
64843;DHT22;51310;52.198;5.422;2022-08-19T14:55:34;24.00;99.90
64843;DHT22;51310;52.198;5.422;2022-08-19T14:58:00;23.90;99.90
64843;DHT22;51310;52.198;5.422;2022-08-19T15:00:27;23.80;99.90
64843;DHT22;51310;52.198;5.422;2022-08-19T15:02:53;24.20;99.90
64843;DHT22;51310;52.198;5.422;2022-08-19T15:05:20;23.90;99.90
64843;DHT22;51310;52.198;5.422;2022-08-19T15:07:46;23.90;99.90
64843;DHT22;51310;52.198;5.422;2022-08-19T15:10:14;24.10;99.90
64843;DHT22;51310;52.198;5.422;2022-08-19T15:12:40;24.00;99.90
64843;DHT22;51310;52.198;5.422;2022-08-19T15:15:10;24.00;99.90
64843;DHT22;51310;52.198;5.422;2022-08-19T15:17:40;24.10;99.90
64843;DHT22;51310;52.198;5.422;2022-08-19T15:20:07;24.20;99.90
64843;DHT22;51310;52.198;5.422;2022-08-19T15:22:35;24.30;99.90
64843;DHT22;51310;52.198;5.422;2022-08-19T15:25:03;24.30;99.90
64843;DHT22;51310;52.198;5.422;2022-08-19T15:27:30;24.20;99.90
64843;DHT22;51310;52.198;5.422;2022-08-19T15:29:56;24.50;99.90
64843;DHT22;51310;52.198;5.422;2022-08-19T15:32:22;24.60;99.90
64843;DHT22;51310;52.198;5.422;2022-08-19T15:34:50;24.60;99.90
64843;DHT22;51310;52.198;5.422;2022-08-19T15:37:16;25.00;99.90
64843;DHT22;51310;52.198;5.422;2022-08-19T15:39:42;25.30;96.60
64843;DHT22;51310;52.198;5.422;2022-08-19T15:42:08;25.30;96.50
64843;DHT22;51310;52.198;5.422;2022-08-19T15:44:34;25.20;96.70
64843;DHT22;51310;52.198;5.422;2022-08-19T15:47:00;25.40;95.80
64843;DHT22;51310;52.198;5.422;2022-08-19T15:49:26;25.00;95.10
64843;DHT22;51310;52.198;5.422;2022-08-19T15:51:51;24.90;96.60
64843;DHT22;51310;52.198;5.422;2022-08-19T15:54:20;24.60;97.30
64843;DHT22;51310;52.198;5.422;2022-08-19T15:56:48;24.60;97.60
64843;DHT22;51310;52.198;5.422;2022-08-19T15:59:36;24.30;98.30
64843;DHT22;51310;52.198;5.422;2022-08-19T16:02:24;24.10;99.50
64843;DHT22;51310;52.198;5.422;2022-08-19T16:05:14;24.70;99.00
64843;DHT22;51310;52.198;5.422;2022-08-19T16:08:03;23.80;99.90
64843;DHT22;51310;52.198;5.422;2022-08-19T16:10:29;23.70;99.10
64843;DHT22;51310;52.198;5.422;2022-08-19T16:12:56;23.50;99.90
64843;DHT22;51310;52.198;5.422;2022-08-19T16:15:24;23.40;99.90